Flying Cat 3 — SX6671 — position and weather

sailwx.info

Track history (hours):
 
Tides and Currents Weather Stations Pressure Air Temp Water Temp Dewpoint Dewpoint Depression Visibility Wind Speed Wind Dir Waves Ship Positions

Flying Cat 3

Last reported at 2016-Jul-27 06:13 UTC. Time now 2016-Jul-27 07:48 UTC.
Position N 37°36' E 023°34'.

Length 48 m; draft 1.5 m.

Type: High speed craft. MMSI: 239552000.

Date/timePositionNaut miles runAvg speedWind from/ knotsBaromVisibWave heightAir tempDewpointWater temp
2016-Jul-27 06:13N 37°36' E 023°34'2132.5
2016-Jul-27 05:33N 37°57' E 023°38'0 0.2
2016-Jul-27 04:32N 37°57' E 023°39'0 0.0
2016-Jul-27 03:29N 37°57' E 023°39'0 0.0
2016-Jul-27 02:32N 37°57' E 023°39'0 0.0
2016-Jul-27 01:32N 37°57' E 023°39'0 0.0
2016-Jul-27 00:32N 37°57' E 023°39'0 0.0
2016-Jul-26 23:32N 37°57' E 023°39'0 0.0
2016-Jul-26 22:32N 37°57' E 023°39'0 0.0
2016-Jul-26 21:32N 37°57' E 023°39'0 0.0
2016-Jul-26 20:26N 37°57' E 023°39'0 0.0
2016-Jul-26 19:29N 37°57' E 023°39'0 0.0
2016-Jul-26 18:32N 37°57' E 023°39'0 0.0
2016-Jul-26 17:29N 37°57' E 023°39'0 0.0
2016-Jul-26 16:29N 37°57' E 023°39'0 0.0
2016-Jul-26 15:30N 37°57' E 023°39'2829.5
2016-Jul-26 14:33N 37°31' E 023°26'2 0.7
2016-Jul-26 11:31N 37°30' E 023°29'2121.6
2016-Jul-26 10:33N 37°50' E 023°35'7 7.0
2016-Jul-26 09:31N 37°57' E 023°39'0 0.1
2016-Jul-26 05:33N 37°56' E 023°38'0 0.3
2016-Jul-26 04:26N 37°57' E 023°39'0 0.0
2016-Jul-26 03:32N 37°57' E 023°39'0 0.0
2016-Jul-26 02:29N 37°57' E 023°39'0 0.0
2016-Jul-26 01:32N 37°57' E 023°39'0 0.0
2016-Jul-26 00:32N 37°57' E 023°39'0 0.0
2016-Jul-25 23:32N 37°57' E 023°39'0 0.0
2016-Jul-25 22:32N 37°57' E 023°39'0 0.0
2016-Jul-25 21:32N 37°57' E 023°39'0 0.0
2016-Jul-25 20:32N 37°57' E 023°39'0 0.0
2016-Jul-25 19:32N 37°57' E 023°39'0 0.0
2016-Jul-25 18:29N 37°57' E 023°39'0 0.0
2016-Jul-25 17:32N 37°57' E 023°39'0 0.0
2016-Jul-25 16:32N 37°57' E 023°39'0 0.0
2016-Jul-25 15:33N 37°57' E 023°39'2827.7
2016-Jul-25 14:33N 37°30' E 023°27'9 3.8
2016-Jul-25 12:14N 37°22' E 023°23'912.4
2016-Jul-25 11:32N 37°29' E 023°29'2222.2
2016-Jul-25 10:34N 37°50' E 023°36'7 6.7
2016-Jul-25 09:33N 37°57' E 023°39'22 6.7
2016-Jul-25 06:14N 37°35' E 023°34'2232.5
2016-Jul-25 05:33N 37°57' E 023°38'0 0.3
2016-Jul-25 04:28N 37°57' E 023°39'0 0.0
2016-Jul-25 03:31N 37°57' E 023°39'0 0.0
2016-Jul-25 02:28N 37°57' E 023°39'0 0.0
2016-Jul-25 01:31N 37°57' E 023°39'0 0.0
2016-Jul-25 00:25N 37°57' E 023°39'0 0.0
2016-Jul-24 23:31N 37°57' E 023°39'0 0.0
2016-Jul-24 22:31N 37°57' E 023°39'0 0.0
2016-Jul-24 21:31N 37°57' E 023°39'0 0.0
2016-Jul-24 20:28N 37°57' E 023°39'0 0.0
2016-Jul-24 19:28N 37°57' E 023°39'8 8.6
2016-Jul-24 18:34N 37°49' E 023°35'2913.7
2016-Jul-24 16:25N 37°21' E 023°26'2124.6
2016-Jul-24 15:34N 37°41' E 023°34'1616.2
2016-Jul-24 14:33N 37°57' E 023°39'2524.4
2016-Jul-24 13:33N 37°34' E 023°27'1312.8
2016-Jul-24 12:33N 37°21' E 023°28'8 3.4
2016-Jul-24 10:20N 37°28' E 023°31'1316.3
2016-Jul-24 09:33N 37°41' E 023°32'1616.3
2016-Jul-24 08:33N 37°57' E 023°39'0 0.0
2016-Jul-24 07:33N 37°57' E 023°39'0 0.0
2016-Jul-24 06:33N 37°57' E 023°39'0 0.0
2016-Jul-24 05:33N 37°57' E 023°39'0 0.0
2016-Jul-24 04:33N 37°57' E 023°39'0 0.0
2016-Jul-24 03:33N 37°57' E 023°39'0 0.0
2016-Jul-24 02:33N 37°57' E 023°39'0 0.0
2016-Jul-24 01:33N 37°57' E 023°39'0 0.0
2016-Jul-24 00:33N 37°57' E 023°39'0 0.0
2016-Jul-23 23:33N 37°57' E 023°39'0 0.0
2016-Jul-23 22:33N 37°57' E 023°39'0 0.0
2016-Jul-23 21:33N 37°57' E 023°39'0 0.0
2016-Jul-23 20:33N 37°57' E 023°39'0 0.0
2016-Jul-23 19:33N 37°57' E 023°39'0 0.0
2016-Jul-23 18:34N 37°57' E 023°39'0 0.0
2016-Jul-23 17:33N 37°57' E 023°39'0 0.0
2016-Jul-23 16:33N 37°57' E 023°39'0 0.0
2016-Jul-23 15:33N 37°57' E 023°39'2827.7
2016-Jul-23 14:33N 37°30' E 023°27'7 2.0
2016-Jul-23 11:15N 37°34' E 023°33'2332.5
2016-Jul-23 10:33N 37°57' E 023°38'0 0.3
2016-Jul-23 09:33N 37°57' E 023°39'3429.5
2016-Jul-23 08:23N 37°23' E 023°29'3 1.6
2016-Jul-23 06:30N 37°25' E 023°32'3216.3
2016-Jul-23 04:34N 37°57' E 023°39'0 0.0
2016-Jul-23 03:31N 37°57' E 023°39'0 0.0
2016-Jul-23 02:31N 37°57' E 023°39'0 0.0
2016-Jul-23 01:31N 37°57' E 023°39'0 0.0
2016-Jul-23 00:31N 37°57' E 023°39'0 0.0
2016-Jul-22 23:31N 37°57' E 023°39'0 0.0
2016-Jul-22 22:31N 37°57' E 023°39'0 0.0
2016-Jul-22 21:31N 37°57' E 023°39'0 0.0
2016-Jul-22 20:31N 37°57' E 023°39'0 0.0
2016-Jul-22 19:31N 37°57' E 023°39'8 8.6
2016-Jul-22 18:33N 37°49' E 023°36'2828.2
2016-Jul-22 17:33N 37°21' E 023°28'6 2.8
2016-Jul-22 15:32N 37°26' E 023°32'3132.1
2016-Jul-22 14:34N 37°57' E 023°38'0 0.2
2016-Jul-22 13:33N 37°57' E 023°39'2828.1
2016-Jul-22 12:34N 37°30' E 023°27'4 3.3
2016-Jul-22 11:24N 37°28' E 023°31'1517.5
2016-Jul-22 10:33N 37°43' E 023°33'1414.3
2016-Jul-22 09:33N 37°57' E 023°39'0 0.0
2016-Jul-22 08:33N 37°57' E 023°39'0 0.0
2016-Jul-22 07:33N 37°57' E 023°39'0 0.0
2016-Jul-22 05:33N 37°57' E 023°39'0 0.0
2016-Jul-22 04:33N 37°57' E 023°39'0 0.0
2016-Jul-22 03:33N 37°57' E 023°39'0 0.0
2016-Jul-22 02:33N 37°57' E 023°39'0 0.0
2016-Jul-22 01:33N 37°57' E 023°39'0 0.0
2016-Jul-22 00:33N 37°57' E 023°39'0 0.1
2016-Jul-21 23:33N 37°57' E 023°39'0 0.1
2016-Jul-21 22:33N 37°57' E 023°39'0 0.0
2016-Jul-21 21:33N 37°57' E 023°39'0 0.0
2016-Jul-21 20:33N 37°57' E 023°39'0 0.0
2016-Jul-21 19:33N 37°57' E 023°39'0 0.0
2016-Jul-21 18:33N 37°57' E 023°39'0 0.0
2016-Jul-21 17:33N 37°57' E 023°39'0 0.0
2016-Jul-21 16:33N 37°57' E 023°39'0 0.0
2016-Jul-21 15:33N 37°57' E 023°39'2827.5
2016-Jul-21 14:32N 37°30' E 023°27'2 0.7
2016-Jul-21 11:33N 37°29' E 023°29'2121.7
2016-Jul-21 10:33N 37°50' E 023°36'7 6.9
2016-Jul-21 09:34N 37°57' E 023°39'20 5.9
2016-Jul-21 06:10N 37°37' E 023°34'2032.6
2016-Jul-21 05:33N 37°57' E 023°38'0 0.3
2016-Jul-21 04:33N 37°57' E 023°39'0 0.0
2016-Jul-21 03:33N 37°57' E 023°39'0 0.0
2016-Jul-21 02:33N 37°57' E 023°39'0 0.0
2016-Jul-21 01:34N 37°57' E 023°39'0 0.0
2016-Jul-21 00:33N 37°57' E 023°39'0 0.0
2016-Jul-20 23:33N 37°57' E 023°39'0 0.0
2016-Jul-20 22:33N 37°57' E 023°39'0 0.0
2016-Jul-20 21:33N 37°57' E 023°39'0 0.0
2016-Jul-20 20:33N 37°57' E 023°39'0 0.0
2016-Jul-20 19:33N 37°57' E 023°39'0 0.0
2016-Jul-20 18:33N 37°57' E 023°39'0 0.0
2016-Jul-20 17:33N 37°57' E 023°39'0 0.0
2016-Jul-20 16:33N 37°57' E 023°39'0 0.3
2016-Jul-20 15:33N 37°57' E 023°38'2826.4
2016-Jul-20 14:30N 37°30' E 023°27'8 3.5
2016-Jul-20 12:14N 37°22' E 023°23'811.9
2016-Jul-20 11:33N 37°29' E 023°29'2121.2
2016-Jul-20 10:34N 37°50' E 023°35'7 7.2
2016-Jul-20 09:34N 37°57' E 023°39'20 5.9
2016-Jul-20 06:10N 37°37' E 023°34'2033.0
2016-Jul-20 05:33N 37°57' E 023°38'0 0.3
2016-Jul-20 04:32N 37°57' E 023°39'0 0.0
2016-Jul-20 03:32N 37°57' E 023°39'0 0.0
2016-Jul-20 02:32N 37°57' E 023°39'0 0.0
2016-Jul-20 01:32N 37°57' E 023°39'0 0.0
2016-Jul-20 00:32N 37°57' E 023°39'0 0.0
2016-Jul-19 23:26N 37°57' E 023°39'0 0.0
2016-Jul-19 22:32N 37°57' E 023°39'0 0.0
2016-Jul-19 21:32N 37°57' E 023°39'0 0.0
2016-Jul-19 20:26N 37°57' E 023°39'0 0.0
2016-Jul-19 19:32N 37°57' E 023°39'0 0.0
2016-Jul-19 18:32N 37°57' E 023°39'0 0.0
2016-Jul-19 17:32N 37°57' E 023°39'0 0.0
2016-Jul-19 16:32N 37°57' E 023°39'0 0.0
2016-Jul-19 15:33N 37°57' E 023°39'2827.4
2016-Jul-19 14:32N 37°30' E 023°27'9 4.2
2016-Jul-19 12:18N 37°22' E 023°20'1013.2
2016-Jul-19 11:33N 37°29' E 023°29'2222.1
2016-Jul-19 10:34N 37°51' E 023°36'6 6.4
2016-Jul-19 09:33N 37°57' E 023°39'2825.8
2016-Jul-19 08:29N 37°29' E 023°33'28 7.1
2016-Jul-19 04:33N 37°57' E 023°39'0 0.0
2016-Jul-19 03:33N 37°57' E 023°39'0 0.0
2016-Jul-19 02:33N 37°57' E 023°39'0 0.0
2016-Jul-19 01:33N 37°57' E 023°39'0 0.0
2016-Jul-19 00:33N 37°57' E 023°39'0 0.0
2016-Jul-18 23:33N 37°57' E 023°39'0 0.0
2016-Jul-18 22:33N 37°57' E 023°39'0 0.0
2016-Jul-18 21:33N 37°57' E 023°39'0 0.0
2016-Jul-18 20:33N 37°57' E 023°39'0 0.0
2016-Jul-18 19:33N 37°57' E 023°39'0 0.0
2016-Jul-18 18:33N 37°57' E 023°39'0 0.0
2016-Jul-18 17:33N 37°57' E 023°39'0 0.0
2016-Jul-18 16:33N 37°57' E 023°39'0 0.0
2016-Jul-18 15:33N 37°57' E 023°39'2827.6
2016-Jul-18 14:32N 37°30' E 023°27'1 0.4
2016-Jul-18 11:33N 37°30' E 023°28'2222.0
2016-Jul-18 10:34N 37°51' E 023°36'6 6.4
2016-Jul-18 09:33N 37°57' E 023°39'19 5.4
2016-Jul-18 06:07N 37°38' E 023°35'1933.1
2016-Jul-18 05:33N 37°56' E 023°38'0 0.4
2016-Jul-18 04:33N 37°57' E 023°39'0 0.0
2016-Jul-18 03:31N 37°57' E 023°39'0 0.0
2016-Jul-18 02:31N 37°57' E 023°39'0 0.0
2016-Jul-18 01:31N 37°57' E 023°39'0 0.0
2016-Jul-18 00:31N 37°57' E 023°39'0 0.0
2016-Jul-17 23:31N 37°57' E 023°39'0 0.0
2016-Jul-17 22:31N 37°57' E 023°39'0 0.0
2016-Jul-17 21:31N 37°57' E 023°39'0 0.0
2016-Jul-17 20:31N 37°57' E 023°39'0 0.0
2016-Jul-17 19:31N 37°57' E 023°39'7 7.7
2016-Jul-17 18:34N 37°50' E 023°35'2929.2
2016-Jul-17 17:33N 37°21' E 023°28'3 2.4
2016-Jul-17 16:23N 37°20' E 023°25'2226.8
2016-Jul-17 15:34N 37°41' E 023°35'1615.8
2016-Jul-17 14:33N 37°57' E 023°39'2424.3
2016-Jul-17 13:33N 37°34' E 023°27'15 6.4
2016-Jul-17 11:09N 37°19' E 023°21'1219.5
2016-Jul-17 10:33N 37°28' E 023°31'2121.0
2016-Jul-17 09:34N 37°49' E 023°35'8 8.1
2016-Jul-17 08:33N 37°57' E 023°39'0 0.0
2016-Jul-17 07:33N 37°57' E 023°39'0 0.0
2016-Jul-17 06:33N 37°57' E 023°39'  
Track history (hours):
 
Tides and Currents Weather Stations Pressure Air Temp Water Temp Dewpoint Dewpoint Depression Visibility Wind Speed Wind Dir Waves Ship Positions

Flying Cat 3

Last reported at 2016-Jul-27 06:13 UTC. Time now 2016-Jul-27 07:48 UTC.
Position N 37°36' E 023°34'.

Length 48 m; draft 1.5 m.

Type: High speed craft. MMSI: 239552000.

Date/timePositionNaut miles runAvg speedWind from/ knotsBaromVisibWave heightAir tempDewpointWater temp
2016-Jul-27 06:13N 37°36' E 023°34'2132.5
2016-Jul-27 05:33N 37°57' E 023°38'0 0.2
2016-Jul-27 04:32N 37°57' E 023°39'0 0.0
2016-Jul-27 03:29N 37°57' E 023°39'0 0.0
2016-Jul-27 02:32N 37°57' E 023°39'0 0.0
2016-Jul-27 01:32N 37°57' E 023°39'0 0.0
2016-Jul-27 00:32N 37°57' E 023°39'0 0.0
2016-Jul-26 23:32N 37°57' E 023°39'0 0.0
2016-Jul-26 22:32N 37°57' E 023°39'0 0.0
2016-Jul-26 21:32N 37°57' E 023°39'0 0.0
2016-Jul-26 20:26N 37°57' E 023°39'0 0.0
2016-Jul-26 19:29N 37°57' E 023°39'0 0.0
2016-Jul-26 18:32N 37°57' E 023°39'0 0.0
2016-Jul-26 17:29N 37°57' E 023°39'0 0.0
2016-Jul-26 16:29N 37°57' E 023°39'0 0.0
2016-Jul-26 15:30N 37°57' E 023°39'2829.5
2016-Jul-26 14:33N 37°31' E 023°26'2 0.7
2016-Jul-26 11:31N 37°30' E 023°29'2121.6
2016-Jul-26 10:33N 37°50' E 023°35'7 7.0
2016-Jul-26 09:31N 37°57' E 023°39'0 0.1
2016-Jul-26 05:33N 37°56' E 023°38'0 0.3
2016-Jul-26 04:26N 37°57' E 023°39'0 0.0
2016-Jul-26 03:32N 37°57' E 023°39'0 0.0
2016-Jul-26 02:29N 37°57' E 023°39'0 0.0
2016-Jul-26 01:32N 37°57' E 023°39'0 0.0
2016-Jul-26 00:32N 37°57' E 023°39'0 0.0
2016-Jul-25 23:32N 37°57' E 023°39'0 0.0
2016-Jul-25 22:32N 37°57' E 023°39'0 0.0
2016-Jul-25 21:32N 37°57' E 023°39'0 0.0
2016-Jul-25 20:32N 37°57' E 023°39'0 0.0
2016-Jul-25 19:32N 37°57' E 023°39'0 0.0
2016-Jul-25 18:29N 37°57' E 023°39'0 0.0
2016-Jul-25 17:32N 37°57' E 023°39'0 0.0
2016-Jul-25 16:32N 37°57' E 023°39'0 0.0
2016-Jul-25 15:33N 37°57' E 023°39'2827.7
2016-Jul-25 14:33N 37°30' E 023°27'9 3.8
2016-Jul-25 12:14N 37°22' E 023°23'912.4
2016-Jul-25 11:32N 37°29' E 023°29'2222.2
2016-Jul-25 10:34N 37°50' E 023°36'7 6.7
2016-Jul-25 09:33N 37°57' E 023°39'22 6.7
2016-Jul-25 06:14N 37°35' E 023°34'2232.5
2016-Jul-25 05:33N 37°57' E 023°38'0 0.3
2016-Jul-25 04:28N 37°57' E 023°39'0 0.0
2016-Jul-25 03:31N 37°57' E 023°39'0 0.0
2016-Jul-25 02:28N 37°57' E 023°39'0 0.0
2016-Jul-25 01:31N 37°57' E 023°39'0 0.0
2016-Jul-25 00:25N 37°57' E 023°39'0 0.0
2016-Jul-24 23:31N 37°57' E 023°39'0 0.0
2016-Jul-24 22:31N 37°57' E 023°39'0 0.0
2016-Jul-24 21:31N 37°57' E 023°39'0 0.0
2016-Jul-24 20:28N 37°57' E 023°39'0 0.0
2016-Jul-24 19:28N 37°57' E 023°39'8 8.6
2016-Jul-24 18:34N 37°49' E 023°35'2913.7
2016-Jul-24 16:25N 37°21' E 023°26'2124.6
2016-Jul-24 15:34N 37°41' E 023°34'1616.2
2016-Jul-24 14:33N 37°57' E 023°39'2524.4
2016-Jul-24 13:33N 37°34' E 023°27'1312.8
2016-Jul-24 12:33N 37°21' E 023°28'8 3.4
2016-Jul-24 10:20N 37°28' E 023°31'1316.3
2016-Jul-24 09:33N 37°41' E 023°32'1616.3
2016-Jul-24 08:33N 37°57' E 023°39'0 0.0
2016-Jul-24 07:33N 37°57' E 023°39'0 0.0
2016-Jul-24 06:33N 37°57' E 023°39'0 0.0
2016-Jul-24 05:33N 37°57' E 023°39'0 0.0
2016-Jul-24 04:33N 37°57' E 023°39'0 0.0
2016-Jul-24 03:33N 37°57' E 023°39'0 0.0
2016-Jul-24 02:33N 37°57' E 023°39'0 0.0
2016-Jul-24 01:33N 37°57' E 023°39'0 0.0
2016-Jul-24 00:33N 37°57' E 023°39'0 0.0
2016-Jul-23 23:33N 37°57' E 023°39'0 0.0
2016-Jul-23 22:33N 37°57' E 023°39'0 0.0
2016-Jul-23 21:33N 37°57' E 023°39'0 0.0
2016-Jul-23 20:33N 37°57' E 023°39'0 0.0
2016-Jul-23 19:33N 37°57' E 023°39'0 0.0
2016-Jul-23 18:34N 37°57' E 023°39'0 0.0
2016-Jul-23 17:33N 37°57' E 023°39'0 0.0
2016-Jul-23 16:33N 37°57' E 023°39'0 0.0
2016-Jul-23 15:33N 37°57' E 023°39'2827.7
2016-Jul-23 14:33N 37°30' E 023°27'7 2.0
2016-Jul-23 11:15N 37°34' E 023°33'2332.5
2016-Jul-23 10:33N 37°57' E 023°38'0 0.3
2016-Jul-23 09:33N 37°57' E 023°39'3429.5
2016-Jul-23 08:23N 37°23' E 023°29'3 1.6
2016-Jul-23 06:30N 37°25' E 023°32'3216.3
2016-Jul-23 04:34N 37°57' E 023°39'0 0.0
2016-Jul-23 03:31N 37°57' E 023°39'0 0.0
2016-Jul-23 02:31N 37°57' E 023°39'0 0.0
2016-Jul-23 01:31N 37°57' E 023°39'0 0.0
2016-Jul-23 00:31N 37°57' E 023°39'0 0.0
2016-Jul-22 23:31N 37°57' E 023°39'0 0.0
2016-Jul-22 22:31N 37°57' E 023°39'0 0.0
2016-Jul-22 21:31N 37°57' E 023°39'0 0.0
2016-Jul-22 20:31N 37°57' E 023°39'0 0.0
2016-Jul-22 19:31N 37°57' E 023°39'8 8.6
2016-Jul-22 18:33N 37°49' E 023°36'2828.2
2016-Jul-22 17:33N 37°21' E 023°28'6 2.8
2016-Jul-22 15:32N 37°26' E 023°32'3132.1
2016-Jul-22 14:34N 37°57' E 023°38'0 0.2
2016-Jul-22 13:33N 37°57' E 023°39'2828.1
2016-Jul-22 12:34N 37°30' E 023°27'4 3.3
2016-Jul-22 11:24N 37°28' E 023°31'1517.5
2016-Jul-22 10:33N 37°43' E 023°33'1414.3
2016-Jul-22 09:33N 37°57' E 023°39'0 0.0
2016-Jul-22 08:33N 37°57' E 023°39'0 0.0
2016-Jul-22 07:33N 37°57' E 023°39'0 0.0
2016-Jul-22 05:33N 37°57' E 023°39'0 0.0
2016-Jul-22 04:33N 37°57' E 023°39'0 0.0
2016-Jul-22 03:33N 37°57' E 023°39'0 0.0
2016-Jul-22 02:33N 37°57' E 023°39'0 0.0
2016-Jul-22 01:33N 37°57' E 023°39'0 0.0
2016-Jul-22 00:33N 37°57' E 023°39'0 0.1
2016-Jul-21 23:33N 37°57' E 023°39'0 0.1
2016-Jul-21 22:33N 37°57' E 023°39'0 0.0
2016-Jul-21 21:33N 37°57' E 023°39'0 0.0
2016-Jul-21 20:33N 37°57' E 023°39'0 0.0
2016-Jul-21 19:33N 37°57' E 023°39'0 0.0
2016-Jul-21 18:33N 37°57' E 023°39'0 0.0
2016-Jul-21 17:33N 37°57' E 023°39'0 0.0
2016-Jul-21 16:33N 37°57' E 023°39'0 0.0
2016-Jul-21 15:33N 37°57' E 023°39'2827.5
2016-Jul-21 14:32N 37°30' E 023°27'2 0.7
2016-Jul-21 11:33N 37°29' E 023°29'2121.7
2016-Jul-21 10:33N 37°50' E 023°36'7 6.9
2016-Jul-21 09:34N 37°57' E 023°39'20 5.9
2016-Jul-21 06:10N 37°37' E 023°34'2032.6
2016-Jul-21 05:33N 37°57' E 023°38'0 0.3
2016-Jul-21 04:33N 37°57' E 023°39'0 0.0
2016-Jul-21 03:33N 37°57' E 023°39'0 0.0
2016-Jul-21 02:33N 37°57' E 023°39'0 0.0
2016-Jul-21 01:34N 37°57' E 023°39'0 0.0
2016-Jul-21 00:33N 37°57' E 023°39'0 0.0
2016-Jul-20 23:33N 37°57' E 023°39'0 0.0
2016-Jul-20 22:33N 37°57' E 023°39'0 0.0
2016-Jul-20 21:33N 37°57' E 023°39'0 0.0
2016-Jul-20 20:33N 37°57' E 023°39'0 0.0
2016-Jul-20 19:33N 37°57' E 023°39'0 0.0
2016-Jul-20 18:33N 37°57' E 023°39'0 0.0
2016-Jul-20 17:33N 37°57' E 023°39'0 0.0
2016-Jul-20 16:33N 37°57' E 023°39'0 0.3
2016-Jul-20 15:33N 37°57' E 023°38'2826.4
2016-Jul-20 14:30N 37°30' E 023°27'8 3.5
2016-Jul-20 12:14N 37°22' E 023°23'811.9
2016-Jul-20 11:33N 37°29' E 023°29'2121.2
2016-Jul-20 10:34N 37°50' E 023°35'7 7.2
2016-Jul-20 09:34N 37°57' E 023°39'20 5.9
2016-Jul-20 06:10N 37°37' E 023°34'2033.0
2016-Jul-20 05:33N 37°57' E 023°38'0 0.3
2016-Jul-20 04:32N 37°57' E 023°39'0 0.0
2016-Jul-20 03:32N 37°57' E 023°39'0 0.0
2016-Jul-20 02:32N 37°57' E 023°39'0 0.0
2016-Jul-20 01:32N 37°57' E 023°39'0 0.0
2016-Jul-20 00:32N 37°57' E 023°39'0 0.0
2016-Jul-19 23:26N 37°57' E 023°39'0 0.0
2016-Jul-19 22:32N 37°57' E 023°39'0 0.0
2016-Jul-19 21:32N 37°57' E 023°39'0 0.0
2016-Jul-19 20:26N 37°57' E 023°39'0 0.0
2016-Jul-19 19:32N 37°57' E 023°39'0 0.0
2016-Jul-19 18:32N 37°57' E 023°39'0 0.0
2016-Jul-19 17:32N 37°57' E 023°39'0 0.0
2016-Jul-19 16:32N 37°57' E 023°39'0 0.0
2016-Jul-19 15:33N 37°57' E 023°39'2827.4
2016-Jul-19 14:32N 37°30' E 023°27'9 4.2
2016-Jul-19 12:18N 37°22' E 023°20'1013.2
2016-Jul-19 11:33N 37°29' E 023°29'2222.1
2016-Jul-19 10:34N 37°51' E 023°36'6 6.4
2016-Jul-19 09:33N 37°57' E 023°39'2825.8
2016-Jul-19 08:29N 37°29' E 023°33'28 7.1
2016-Jul-19 04:33N 37°57' E 023°39'0 0.0
2016-Jul-19 03:33N 37°57' E 023°39'0 0.0
2016-Jul-19 02:33N 37°57' E 023°39'0 0.0
2016-Jul-19 01:33N 37°57' E 023°39'0 0.0
2016-Jul-19 00:33N 37°57' E 023°39'0 0.0
2016-Jul-18 23:33N 37°57' E 023°39'0 0.0
2016-Jul-18 22:33N 37°57' E 023°39'0 0.0
2016-Jul-18 21:33N 37°57' E 023°39'0 0.0
2016-Jul-18 20:33N 37°57' E 023°39'0 0.0
2016-Jul-18 19:33N 37°57' E 023°39'0 0.0
2016-Jul-18 18:33N 37°57' E 023°39'0 0.0
2016-Jul-18 17:33N 37°57' E 023°39'0 0.0
2016-Jul-18 16:33N 37°57' E 023°39'0 0.0
2016-Jul-18 15:33N 37°57' E 023°39'2827.6
2016-Jul-18 14:32N 37°30' E 023°27'1 0.4
2016-Jul-18 11:33N 37°30' E 023°28'2222.0
2016-Jul-18 10:34N 37°51' E 023°36'6 6.4
2016-Jul-18 09:33N 37°57' E 023°39'19 5.4
2016-Jul-18 06:07N 37°38' E 023°35'1933.1
2016-Jul-18 05:33N 37°56' E 023°38'0 0.4
2016-Jul-18 04:33N 37°57' E 023°39'0 0.0
2016-Jul-18 03:31N 37°57' E 023°39'0 0.0
2016-Jul-18 02:31N 37°57' E 023°39'0 0.0
2016-Jul-18 01:31N 37°57' E 023°39'0 0.0
2016-Jul-18 00:31N 37°57' E 023°39'0 0.0
2016-Jul-17 23:31N 37°57' E 023°39'0 0.0
2016-Jul-17 22:31N 37°57' E 023°39'0 0.0
2016-Jul-17 21:31N 37°57' E 023°39'0 0.0
2016-Jul-17 20:31N 37°57' E 023°39'0 0.0
2016-Jul-17 19:31N 37°57' E 023°39'7 7.7
2016-Jul-17 18:34N 37°50' E 023°35'2929.2
2016-Jul-17 17:33N 37°21' E 023°28'3 2.4
2016-Jul-17 16:23N 37°20' E 023°25'2226.8
2016-Jul-17 15:34N 37°41' E 023°35'1615.8
2016-Jul-17 14:33N 37°57' E 023°39'2424.3
2016-Jul-17 13:33N 37°34' E 023°27'15 6.4
2016-Jul-17 11:09N 37°19' E 023°21'1219.5
2016-Jul-17 10:33N 37°28' E 023°31'2121.0
2016-Jul-17 09:34N 37°49' E 023°35'8 8.1
2016-Jul-17 08:33N 37°57' E 023°39'0 0.0
2016-Jul-17 07:33N 37°57' E 023°39'0 0.0
2016-Jul-17 06:33N 37°57' E 023°39'  

Dump ship's entire track history